sensor_id;sensor_type;location;lat;lon;timestamp;pressure;altitude;pressure_sealevel;temperature;humidity
49611;BME280;35515;48.766;9.176;2023-07-08T00:00:10;98402.19;;;22.51;41.85
49611;BME280;35515;48.766;9.176;2023-07-08T00:02:39;98396.06;;;22.54;40.71
49611;BME280;35515;48.766;9.176;2023-07-08T00:05:07;98401.59;;;22.54;41.10
49611;BME280;35515;48.766;9.176;2023-07-08T00:07:34;98391.69;;;22.48;41.35
49611;BME280;35515;48.766;9.176;2023-07-08T00:10:00;98386.47;;;22.47;41.61
49611;BME280;35515;48.766;9.176;2023-07-08T00:12:27;98384.88;;;22.41;40.71
49611;BME280;35515;48.766;9.176;2023-07-08T00:14:53;98379.59;;;22.39;40.36
49611;BME280;35515;48.766;9.176;2023-07-08T00:17:20;98381.84;;;22.37;40.66
49611;BME280;35515;48.766;9.176;2023-07-08T00:19:48;98380.41;;;22.45;41.28
49611;BME280;35515;48.766;9.176;2023-07-08T00:22:16;98373.50;;;22.47;40.62
49611;BME280;35515;48.766;9.176;2023-07-08T00:24:42;98378.78;;;22.38;40.16
49611;BME280;35515;48.766;9.176;2023-07-08T00:27:10;98376.84;;;22.39;40.96
49611;BME280;35515;48.766;9.176;2023-07-08T00:29:37;98376.84;;;22.39;41.17
49611;BME280;35515;48.766;9.176;2023-07-08T00:32:10;98374.06;;;22.44;41.99
49611;BME280;35515;48.766;9.176;2023-07-08T00:34:37;98376.84;;;22.39;41.31
49611;BME280;35515;48.766;9.176;2023-07-08T00:37:05;98375.78;;;22.35;40.68
49611;BME280;35515;48.766;9.176;2023-07-08T00:39:31;98361.97;;;22.35;40.81
49611;BME280;35515;48.766;9.176;2023-07-08T00:41:58;98369.44;;;22.29;40.76
49611;BME280;35515;48.766;9.176;2023-07-08T00:44:26;98373.59;;;22.27;40.77
49611;BME280;35515;48.766;9.176;2023-07-08T00:46:57;98374.44;;;22.27;41.74
49611;BME280;35515;48.766;9.176;2023-07-08T00:49:34;98385.19;;;22.24;40.86
49611;BME280;35515;48.766;9.176;2023-07-08T00:52:22;98392.69;;;22.18;40.88
49611;BME280;35515;48.766;9.176;2023-07-08T00:54:50;98389.41;;;22.11;41.76
49611;BME280;35515;48.766;9.176;2023-07-08T00:57:17;98390.53;;;22.04;41.30
49611;BME280;35515;48.766;9.176;2023-07-08T00:59:49;98387.53;;;22.01;40.41
49611;BME280;35515;48.766;9.176;2023-07-08T01:02:21;98387.53;;;22.01;40.89
49611;BME280;35515;48.766;9.176;2023-07-08T01:04:52;98385.28;;;22.03;41.46
49611;BME280;35515;48.766;9.176;2023-07-08T01:07:25;98381.44;;;22.04;40.81
49611;BME280;35515;48.766;9.176;2023-07-08T01:09:54;98379.78;;;22.03;41.80
49611;BME280;35515;48.766;9.176;2023-07-08T01:12:26;98385.84;;;22.05;41.56
49611;BME280;35515;48.766;9.176;2023-07-08T01:14:54;98383.06;;;22.10;40.84
49611;BME280;35515;48.766;9.176;2023-07-08T01:17:21;98385.56;;;22.07;41.67
49611;BME280;35515;48.766;9.176;2023-07-08T01:19:49;98385.28;;;22.08;40.97
49611;BME280;35515;48.766;9.176;2023-07-08T01:22:17;98380.94;;;21.97;42.16
49611;BME280;35515;48.766;9.176;2023-07-08T01:24:44;98378.16;;;22.02;41.84
49611;BME280;35515;48.766;9.176;2023-07-08T01:27:14;98383.91;;;22.05;41.03
49611;BME280;35515;48.766;9.176;2023-07-08T01:29:41;98379.28;;;21.96;42.37
49611;BME280;35515;48.766;9.176;2023-07-08T01:32:10;98370.72;;;21.92;41.19
49611;BME280;35515;48.766;9.176;2023-07-08T01:34:39;98376.81;;;21.94;41.16
49611;BME280;35515;48.766;9.176;2023-07-08T01:37:06;98379.56;;;21.89;41.87
49611;BME280;35515;48.766;9.176;2023-07-08T01:39:37;98382.31;;;21.94;41.49
49611;BME280;35515;48.766;9.176;2023-07-08T01:42:04;98378.22;;;21.86;42.72
49611;BME280;35515;48.766;9.176;2023-07-08T01:44:33;98378.75;;;21.88;41.71
49611;BME280;35515;48.766;9.176;2023-07-08T01:47:02;98385.09;;;21.89;42.00
49611;BME280;35515;48.766;9.176;2023-07-08T01:49:30;98380.16;;;21.86;42.72
49611;BME280;35515;48.766;9.176;2023-07-08T01:51:58;98376.03;;;21.78;42.63
49611;BME280;35515;48.766;9.176;2023-07-08T01:54:25;98377.16;;;21.77;42.60
49611;BME280;35515;48.766;9.176;2023-07-08T01:56:55;98384.31;;;21.73;42.70
49611;BME280;35515;48.766;9.176;2023-07-08T01:59:22;98384.34;;;21.68;42.84
49611;BME280;35515;48.766;9.176;2023-07-08T02:01:49;98383.78;;;21.66;43.57
49611;BME280;35515;48.766;9.176;2023-07-08T02:04:19;98381.59;;;21.63;42.51
49611;BME280;35515;48.766;9.176;2023-07-08T02:06:51;98388.50;;;21.55;42.57
49611;BME280;35515;48.766;9.176;2023-07-08T02:09:17;98377.22;;;21.46;43.43
49611;BME280;35515;48.766;9.176;2023-07-08T02:11:44;98383.84;;;21.40;43.42
49611;BME280;35515;48.766;9.176;2023-07-08T02:14:12;98379.41;;;21.39;43.49
49611;BME280;35515;48.766;9.176;2023-07-08T02:16:38;98372.81;;;21.40;43.66
49611;BME280;35515;48.766;9.176;2023-07-08T02:19:04;98378.31;;;21.40;43.71
49611;BME280;35515;48.766;9.176;2023-07-08T02:21:31;98378.59;;;21.44;43.60
49611;BME280;35515;48.766;9.176;2023-07-08T02:23:58;98375.03;;;21.33;43.96
49611;BME280;35515;48.766;9.176;2023-07-08T02:26:25;98386.63;;;21.25;43.83
49611;BME280;35515;48.766;9.176;2023-07-08T02:28:51;98384.44;;;21.11;43.88
49611;BME280;35515;48.766;9.176;2023-07-08T02:31:19;98384.19;;;21.08;44.12
49611;BME280;35515;48.766;9.176;2023-07-08T02:33:46;98384.41;;;21.16;43.83
49611;BME280;35515;48.766;9.176;2023-07-08T02:36:12;98379.47;;;21.18;44.20
49611;BME280;35515;48.766;9.176;2023-07-08T02:38:39;98385.50;;;21.20;44.12
49611;BME280;35515;48.766;9.176;2023-07-08T02:41:05;98385.78;;;21.19;43.90
49611;BME280;35515;48.766;9.176;2023-07-08T02:43:32;98389.66;;;21.23;44.22
49611;BME280;35515;48.766;9.176;2023-07-08T02:45:58;98393.25;;;21.18;44.59
49611;BME280;35515;48.766;9.176;2023-07-08T02:48:26;98401.50;;;21.18;44.35
49611;BME280;35515;48.766;9.176;2023-07-08T02:50:58;98394.63;;;21.16;44.41
49611;BME280;35515;48.766;9.176;2023-07-08T02:53:25;98393.53;;;21.22;44.23
49611;BME280;35515;48.766;9.176;2023-07-08T02:55:51;98398.19;;;21.21;43.75
49611;BME280;35515;48.766;9.176;2023-07-08T02:58:18;98403.44;;;21.18;43.99
49611;BME280;35515;48.766;9.176;2023-07-08T03:00:44;98407.56;;;21.20;44.16
49611;BME280;35515;48.766;9.176;2023-07-08T03:03:11;98421.31;;;21.20;44.26
49611;BME280;35515;48.766;9.176;2023-07-08T03:05:38;98423.25;;;21.15;44.47
49611;BME280;35515;48.766;9.176;2023-07-08T03:08:05;98418.59;;;21.00;44.54
49611;BME280;35515;48.766;9.176;2023-07-08T03:10:31;98419.41;;;21.00;44.10
49611;BME280;35515;48.766;9.176;2023-07-08T03:12:58;98421.91;;;20.92;44.19
49611;BME280;35515;48.766;9.176;2023-07-08T03:15:24;98423.56;;;20.87;44.46
49611;BME280;35515;48.766;9.176;2023-07-08T03:17:51;98438.94;;;20.88;45.20
49611;BME280;35515;48.766;9.176;2023-07-08T03:20:19;98430.16;;;20.97;44.23
49611;BME280;35515;48.766;9.176;2023-07-08T03:22:46;98416.69;;;20.95;43.73
49611;BME280;35515;48.766;9.176;2023-07-08T03:25:13;98412.53;;;20.98;44.65
49611;BME280;35515;48.766;9.176;2023-07-08T03:27:40;98421.88;;;21.12;44.48
49611;BME280;35515;48.766;9.176;2023-07-08T03:30:09;98419.69;;;21.19;43.50
49611;BME280;35515;48.766;9.176;2023-07-08T03:32:36;98404.25;;;21.18;43.63
49611;BME280;35515;48.766;9.176;2023-07-08T03:35:03;98401.50;;;21.18;43.67
49611;BME280;35515;48.766;9.176;2023-07-08T03:37:29;98405.34;;;21.23;43.63
49611;BME280;35515;48.766;9.176;2023-07-08T03:39:57;98411.97;;;21.27;44.13
49611;BME280;35515;48.766;9.176;2023-07-08T03:42:24;98416.94;;;21.14;44.38
49611;BME280;35515;48.766;9.176;2023-07-08T03:44:50;98396.28;;;21.07;43.95
49611;BME280;35515;48.766;9.176;2023-07-08T03:47:17;98407.59;;;21.05;44.61
49611;BME280;35515;48.766;9.176;2023-07-08T03:49:43;98417.75;;;21.15;43.79
49611;BME280;35515;48.766;9.176;2023-07-08T03:52:14;98424.13;;;21.15;44.16
49611;BME280;35515;48.766;9.176;2023-07-08T03:54:42;98427.69;;;21.05;44.12
49611;BME280;35515;48.766;9.176;2023-07-08T03:57:10;98420.78;;;21.03;44.56
49611;BME280;35515;48.766;9.176;2023-07-08T03:59:36;98434.56;;;21.13;44.39
49611;BME280;35515;48.766;9.176;2023-07-08T04:02:03;98438.13;;;21.19;44.46
49611;BME280;35515;48.766;9.176;2023-07-08T04:04:29;98430.72;;;21.04;44.56
49611;BME280;35515;48.766;9.176;2023-07-08T04:06:56;98430.69;;;20.88;45.43
49611;BME280;35515;48.766;9.176;2023-07-08T04:09:23;98423.56;;;20.93;45.10
49611;BME280;35515;48.766;9.176;2023-07-08T04:11:49;98423.00;;;20.96;45.12
49611;BME280;35515;48.766;9.176;2023-07-08T04:14:17;98425.19;;;20.94;46.05
49611;BME280;35515;48.766;9.176;2023-07-08T04:16:47;98426.84;;;20.95;45.58
49611;BME280;35515;48.766;9.176;2023-07-08T04:19:16;98435.13;;;21.00;45.32
49611;BME280;35515;48.766;9.176;2023-07-08T04:21:44;98428.50;;;20.96;45.34
49611;BME280;35515;48.766;9.176;2023-07-08T04:24:11;98419.16;;;20.97;45.70
49611;BME280;35515;48.766;9.176;2023-07-08T04:26:38;98419.69;;;21.04;45.37
49611;BME280;35515;48.766;9.176;2023-07-08T04:29:09;98419.69;;;21.04;46.00
49611;BME280;35515;48.766;9.176;2023-07-08T04:31:38;98415.84;;;21.05;45.50
49611;BME280;35515;48.766;9.176;2023-07-08T04:34:04;98415.56;;;21.01;46.06
49611;BME280;35515;48.766;9.176;2023-07-08T04:36:31;98420.25;;;21.01;45.84
49611;BME280;35515;48.766;9.176;2023-07-08T04:38:58;98411.16;;;21.00;46.12
49611;BME280;35515;48.766;9.176;2023-07-08T04:41:25;98414.47;;;21.02;45.98
49611;BME280;35515;48.766;9.176;2023-07-08T04:43:51;98415.84;;;21.05;46.06
49611;BME280;35515;48.766;9.176;2023-07-08T04:46:23;98421.88;;;21.12;45.94
49611;BME280;35515;48.766;9.176;2023-07-08T04:48:54;98416.38;;;21.17;46.25
49611;BME280;35515;48.766;9.176;2023-07-08T04:51:20;98418.56;;;21.20;46.38
49611;BME280;35515;48.766;9.176;2023-07-08T04:53:47;98434.28;;;21.15;47.11
49611;BME280;35515;48.766;9.176;2023-07-08T04:56:14;98427.69;;;21.16;46.84
49611;BME280;35515;48.766;9.176;2023-07-08T04:58:40;98418.03;;;21.18;46.36
49611;BME280;35515;48.766;9.176;2023-07-08T05:01:07;98431.81;;;21.18;46.39
49611;BME280;35515;48.766;9.176;2023-07-08T05:03:33;98422.97;;;21.16;45.88
49611;BME280;35515;48.766;9.176;2023-07-08T05:06:01;98418.03;;;21.18;45.55
49611;BME280;35515;48.766;9.176;2023-07-08T05:08:28;98422.69;;;21.23;45.64
49611;BME280;35515;48.766;9.176;2023-07-08T05:10:55;98432.63;;;21.29;45.70
49611;BME280;35515;48.766;9.176;2023-07-08T05:13:22;98424.63;;;21.33;45.21
49611;BME280;35515;48.766;9.176;2023-07-08T05:15:49;98427.91;;;21.40;45.33
49611;BME280;35515;48.766;9.176;2023-07-08T05:18:15;98431.78;;;21.39;45.31
49611;BME280;35515;48.766;9.176;2023-07-08T05:20:42;98435.09;;;21.41;45.75
49611;BME280;35515;48.766;9.176;2023-07-08T05:23:10;98450.53;;;21.47;45.81
49611;BME280;35515;48.766;9.176;2023-07-08T05:25:37;98444.75;;;21.54;45.70
49611;BME280;35515;48.766;9.176;2023-07-08T05:28:04;98463.75;;;21.61;45.96
49611;BME280;35515;48.766;9.176;2023-07-08T05:30:30;98452.69;;;21.66;46.23
49611;BME280;35515;48.766;9.176;2023-07-08T05:32:57;98437.81;;;21.72;45.50
49611;BME280;35515;48.766;9.176;2023-07-08T05:35:23;98437.50;;;21.79;45.80
49611;BME280;35515;48.766;9.176;2023-07-08T05:37:50;98451.56;;;21.82;46.04
49611;BME280;35515;48.766;9.176;2023-07-08T05:40:17;98462.31;;;21.89;46.16
49611;BME280;35515;48.766;9.176;2023-07-08T05:42:44;98465.34;;;21.87;46.31
49611;BME280;35515;48.766;9.176;2023-07-08T05:45:10;98465.59;;;21.91;46.45
49611;BME280;35515;48.766;9.176;2023-07-08T05:47:37;98457.88;;;21.98;45.70
49611;BME280;35515;48.766;9.176;2023-07-08T05:50:04;98453.72;;;22.01;45.61
49611;BME280;35515;48.766;9.176;2023-07-08T05:52:31;98463.91;;;22.05;45.45
49611;BME280;35515;48.766;9.176;2023-07-08T05:54:58;98473.84;;;22.07;45.64
49611;BME280;35515;48.766;9.176;2023-07-08T05:57:26;98466.66;;;22.05;46.07
49611;BME280;35515;48.766;9.176;2023-07-08T05:59:52;98466.94;;;22.04;46.32
49611;BME280;35515;48.766;9.176;2023-07-08T06:02:19;98466.34;;;22.12;45.09
49611;BME280;35515;48.766;9.176;2023-07-08T06:04:48;98459.22;;;22.11;45.61
49611;BME280;35515;48.766;9.176;2023-07-08T06:07:15;98461.13;;;22.11;44.87
49611;BME280;35515;48.766;9.176;2023-07-08T06:09:42;98465.25;;;22.18;44.02
49611;BME280;35515;48.766;9.176;2023-07-08T06:12:08;98460.81;;;22.17;44.21
49611;BME280;35515;48.766;9.176;2023-07-08T06:14:36;98466.31;;;22.23;44.49
49611;BME280;35515;48.766;9.176;2023-07-08T06:17:04;98470.19;;;22.21;44.64
49611;BME280;35515;48.766;9.176;2023-07-08T06:19:31;98474.28;;;22.29;43.69
49611;BME280;35515;48.766;9.176;2023-07-08T06:21:58;98472.91;;;22.32;44.23
49611;BME280;35515;48.766;9.176;2023-07-08T06:24:25;98469.56;;;22.45;42.71
49611;BME280;35515;48.766;9.176;2023-07-08T06:26:51;98477.84;;;22.40;44.51
49611;BME280;35515;48.766;9.176;2023-07-08T06:29:18;98476.16;;;22.49;42.13
49611;BME280;35515;48.766;9.176;2023-07-08T06:31:46;98483.59;;;22.54;42.23
49611;BME280;35515;48.766;9.176;2023-07-08T06:34:12;98486.06;;;22.56;42.17
49611;BME280;35515;48.766;9.176;2023-07-08T06:36:39;98495.47;;;22.54;42.67
49611;BME280;35515;48.766;9.176;2023-07-08T06:39:05;98499.91;;;22.50;43.39
49611;BME280;35515;48.766;9.176;2023-07-08T06:41:34;98501.88;;;22.45;44.57
49611;BME280;35515;48.766;9.176;2023-07-08T06:44:00;98494.69;;;22.44;44.37
49611;BME280;35515;48.766;9.176;2023-07-08T06:46:27;98503.78;;;22.44;44.17
49611;BME280;35515;48.766;9.176;2023-07-08T06:48:55;98512.59;;;22.51;44.41
49611;BME280;35515;48.766;9.176;2023-07-08T06:51:21;98511.22;;;22.49;44.52
49611;BME280;35515;48.766;9.176;2023-07-08T06:53:48;98519.19;;;22.61;44.45
49611;BME280;35515;48.766;9.176;2023-07-08T06:56:14;98516.41;;;22.61;44.55
49611;BME280;35515;48.766;9.176;2023-07-08T06:58:41;98516.09;;;22.67;44.65
49611;BME280;35515;48.766;9.176;2023-07-08T07:01:07;98516.34;;;22.71;44.45
49611;BME280;35515;48.766;9.176;2023-07-08T07:03:34;98514.44;;;22.66;44.97
49611;BME280;35515;48.766;9.176;2023-07-08T07:06:02;98519.06;;;22.76;44.93
49611;BME280;35515;48.766;9.176;2023-07-08T07:08:29;98527.34;;;22.81;44.95
49611;BME280;35515;48.766;9.176;2023-07-08T07:10:55;98531.16;;;22.91;44.96
49611;BME280;35515;48.766;9.176;2023-07-08T07:13:22;98531.34;;;23.04;45.16
49611;BME280;35515;48.766;9.176;2023-07-08T07:15:48;98527.13;;;23.12;45.22
49611;BME280;35515;48.766;9.176;2023-07-08T07:18:15;98530.47;;;23.14;45.22
49611;BME280;35515;48.766;9.176;2023-07-08T07:20:48;98536.50;;;23.21;45.46
49611;BME280;35515;48.766;9.176;2023-07-08T07:23:17;98527.09;;;23.23;45.31
49611;BME280;35515;48.766;9.176;2023-07-08T07:25:45;98531.53;;;23.24;45.90
49611;BME280;35515;48.766;9.176;2023-07-08T07:28:12;98531.16;;;23.35;45.48
49611;BME280;35515;48.766;9.176;2023-07-08T07:30:39;98525.44;;;23.56;44.97
49611;BME280;35515;48.766;9.176;2023-07-08T07:33:05;98522.97;;;23.54;45.15
49611;BME280;35515;48.766;9.176;2023-07-08T07:35:32;98526.38;;;23.46;45.82
49611;BME280;35515;48.766;9.176;2023-07-08T07:37:58;98526.41;;;23.41;45.71
49611;BME280;35515;48.766;9.176;2023-07-08T07:40:26;98536.25;;;23.52;45.67
49611;BME280;35515;48.766;9.176;2023-07-08T07:42:53;98532.94;;;23.56;45.60
49611;BME280;35515;48.766;9.176;2023-07-08T07:45:19;98538.97;;;23.58;45.56
49611;BME280;35515;48.766;9.176;2023-07-08T07:47:47;98530.16;;;23.56;45.93
49611;BME280;35515;48.766;9.176;2023-07-08T07:50:14;98533.44;;;23.58;46.17
49611;BME280;35515;48.766;9.176;2023-07-08T07:52:41;98527.91;;;23.58;46.01
49611;BME280;35515;48.766;9.176;2023-07-08T07:55:08;98535.34;;;23.62;46.03
49611;BME280;35515;48.766;9.176;2023-07-08T07:57:36;98529.47;;;23.69;45.80
49611;BME280;35515;48.766;9.176;2023-07-08T08:00:03;98531.09;;;23.75;45.72
49611;BME280;35515;48.766;9.176;2023-07-08T08:02:29;98538.72;;;23.88;45.73
49611;BME280;35515;48.766;9.176;2023-07-08T08:04:56;98533.72;;;23.91;45.27
49611;BME280;35515;48.766;9.176;2023-07-08T08:07:22;98524.03;;;23.88;45.59
49611;BME280;35515;48.766;9.176;2023-07-08T08:09:49;98530.50;;;24.08;45.62
49611;BME280;35515;48.766;9.176;2023-07-08T08:12:15;98520.66;;;23.96;45.10
49611;BME280;35515;48.766;9.176;2023-07-08T08:14:43;98530.91;;;23.96;45.18
49611;BME280;35515;48.766;9.176;2023-07-08T08:17:10;98529.09;;;24.10;45.19
49611;BME280;35515;48.766;9.176;2023-07-08T08:19:36;98521.91;;;24.09;44.96
49611;BME280;35515;48.766;9.176;2023-07-08T08:22:03;98526.84;;;24.12;44.96
49611;BME280;35515;48.766;9.176;2023-07-08T08:24:30;98533.53;;;24.11;45.09
49611;BME280;35515;48.766;9.176;2023-07-08T08:26:56;98532.16;;;24.09;45.22
49611;BME280;35515;48.766;9.176;2023-07-08T08:29:23;98528.25;;;24.10;45.55
49611;BME280;35515;48.766;9.176;2023-07-08T08:31:51;98526.75;;;24.23;44.66
49611;BME280;35515;48.766;9.176;2023-07-08T08:34:19;98528.84;;;24.31;43.73
49611;BME280;35515;48.766;9.176;2023-07-08T08:36:46;98528.44;;;24.43;43.72
49611;BME280;35515;48.766;9.176;2023-07-08T08:39:14;98537.34;;;24.40;43.90
49611;BME280;35515;48.766;9.176;2023-07-08T08:41:42;98539.09;;;24.54;43.73
49611;BME280;35515;48.766;9.176;2023-07-08T08:44:14;98528.38;;;24.72;43.30
49611;BME280;35515;48.766;9.176;2023-07-08T08:46:48;98531.19;;;24.67;43.04
49611;BME280;35515;48.766;9.176;2023-07-08T08:49:25;98540.03;;;24.69;42.63
49611;BME280;35515;48.766;9.176;2023-07-08T08:51:53;98537.34;;;24.64;42.88
49611;BME280;35515;48.766;9.176;2023-07-08T08:54:20;98539.44;;;24.72;42.85
49611;BME280;35515;48.766;9.176;2023-07-08T08:56:59;98537.78;;;24.71;43.08
49611;BME280;35515;48.766;9.176;2023-07-08T08:59:34;98536.59;;;24.77;42.88
49611;BME280;35515;48.766;9.176;2023-07-08T09:02:23;98539.91;;;24.79;42.74
49611;BME280;35515;48.766;9.176;2023-07-08T09:05:01;98536.53;;;24.82;42.64
49611;BME280;35515;48.766;9.176;2023-07-08T09:07:29;98541.41;;;24.91;42.52
49611;BME280;35515;48.766;9.176;2023-07-08T09:10:03;98537.97;;;24.99;42.09
49611;BME280;35515;48.766;9.176;2023-07-08T09:12:32;98539.84;;;25.03;42.26
49611;BME280;35515;48.766;9.176;2023-07-08T09:15:09;98534.75;;;25.11;42.14
49611;BME280;35515;48.766;9.176;2023-07-08T09:17:38;98533.31;;;25.13;42.66
49611;BME280;35515;48.766;9.176;2023-07-08T09:20:17;98547.25;;;25.08;42.16
49611;BME280;35515;48.766;9.176;2023-07-08T09:22:50;98538.94;;;25.08;41.39
49611;BME280;35515;48.766;9.176;2023-07-08T09:25:24;98537.81;;;25.09;41.28
49611;BME280;35515;48.766;9.176;2023-07-08T09:27:50;98537.22;;;25.12;41.42
49611;BME280;35515;48.766;9.176;2023-07-08T09:30:19;98539.22;;;25.26;41.57
49611;BME280;35515;48.766;9.176;2023-07-08T09:32:46;98534.00;;;25.43;41.43
49611;BME280;35515;48.766;9.176;2023-07-08T09:35:20;98534.50;;;25.45;41.25
49611;BME280;35515;48.766;9.176;2023-07-08T09:37:48;98529.41;;;25.52;41.66
49611;BME280;35515;48.766;9.176;2023-07-08T09:40:17;98527.56;;;25.62;41.60
49611;BME280;35515;48.766;9.176;2023-07-08T09:42:48;98521.97;;;25.81;40.83
49611;BME280;35515;48.766;9.176;2023-07-08T09:45:17;98526.19;;;25.78;40.79
49611;BME280;35515;48.766;9.176;2023-07-08T09:47:45;98522.88;;;25.76;39.96
49611;BME280;35515;48.766;9.176;2023-07-08T09:50:21;98523.91;;;25.80;39.85
49611;BME280;35515;48.766;9.176;2023-07-08T09:52:49;98526.81;;;25.89;40.13
49611;BME280;35515;48.766;9.176;2023-07-08T09:55:16;98528.03;;;25.83;39.27
49611;BME280;35515;48.766;9.176;2023-07-08T09:57:43;98533.72;;;25.92;39.54
49611;BME280;35515;48.766;9.176;2023-07-08T10:00:13;98543.59;;;25.98;39.19
49611;BME280;35515;48.766;9.176;2023-07-08T10:02:43;98535.78;;;26.00;38.77
49611;BME280;35515;48.766;9.176;2023-07-08T10:05:15;98534.53;;;25.92;39.35
49611;BME280;35515;48.766;9.176;2023-07-08T10:07:46;98539.97;;;25.83;39.38
49611;BME280;35515;48.766;9.176;2023-07-08T10:10:16;98541.19;;;25.77;39.85
49611;BME280;35515;48.766;9.176;2023-07-08T10:12:53;98540.69;;;25.75;39.54
49611;BME280;35515;48.766;9.176;2023-07-08T10:15:24;98531.28;;;25.71;40.02
49611;BME280;35515;48.766;9.176;2023-07-08T10:17:54;98537.47;;;25.68;40.92
49611;BME280;35515;48.766;9.176;2023-07-08T10:20:22;98536.66;;;25.67;40.73
49611;BME280;35515;48.766;9.176;2023-07-08T10:22:59;98539.91;;;25.69;40.67
49611;BME280;35515;48.766;9.176;2023-07-08T10:25:37;98539.44;;;25.81;40.97
49611;BME280;35515;48.766;9.176;2023-07-08T10:28:20;98542.25;;;25.95;41.24
49611;BME280;35515;48.766;9.176;2023-07-08T10:30:57;98534.50;;;26.11;41.04
49611;BME280;35515;48.766;9.176;2023-07-08T10:33:39;98530.69;;;26.21;40.72
49611;BME280;35515;48.766;9.176;2023-07-08T10:36:18;98532.94;;;26.05;41.50
49611;BME280;35515;48.766;9.176;2023-07-08T10:38:56;98538.81;;;26.17;41.22
49611;BME280;35515;48.766;9.176;2023-07-08T10:41:30;98535.94;;;26.23;41.08
49611;BME280;35515;48.766;9.176;2023-07-08T10:44:06;98542.91;;;26.48;40.59
49611;BME280;35515;48.766;9.176;2023-07-08T10:46:41;98533.88;;;26.42;40.03
49611;BME280;35515;48.766;9.176;2023-07-08T10:49:38;98532.22;;;26.41;40.04
49611;BME280;35515;48.766;9.176;2023-07-08T10:52:25;98525.88;;;26.41;40.48
49611;BME280;35515;48.766;9.176;2023-07-08T10:55:10;98523.59;;;26.43;39.80
49611;BME280;35515;48.766;9.176;2023-07-08T10:58:04;98528.72;;;26.49;39.67
49611;BME280;35515;48.766;9.176;2023-07-08T11:00:40;98526.69;;;26.41;40.04
49611;BME280;35515;48.766;9.176;2023-07-08T11:03:37;98527.47;;;26.42;40.22
49611;BME280;35515;48.766;9.176;2023-07-08T11:06:10;98522.88;;;26.37;39.69
49611;BME280;35515;48.766;9.176;2023-07-08T11:08:40;98516.50;;;26.36;39.93
49611;BME280;35515;48.766;9.176;2023-07-08T11:11:17;98529.34;;;26.46;40.15
49611;BME280;35515;48.766;9.176;2023-07-08T11:13:51;98526.06;;;26.58;39.69
49611;BME280;35515;48.766;9.176;2023-07-08T11:16:24;98522.22;;;26.68;39.61
49611;BME280;35515;48.766;9.176;2023-07-08T11:18:55;98519.13;;;26.69;39.14
49611;BME280;35515;48.766;9.176;2023-07-08T11:21:29;98520.06;;;26.65;39.70
49611;BME280;35515;48.766;9.176;2023-07-08T11:24:00;98519.06;;;26.61;39.59
49611;BME280;35515;48.766;9.176;2023-07-08T11:26:33;98517.72;;;26.58;40.01
49611;BME280;35515;48.766;9.176;2023-07-08T11:29:01;98520.72;;;26.62;39.85
49611;BME280;35515;48.766;9.176;2023-07-08T11:31:31;98517.19;;;26.70;39.61
49611;BME280;35515;48.766;9.176;2023-07-08T11:34:00;98518.00;;;26.84;38.85
49611;BME280;35515;48.766;9.176;2023-07-08T11:36:29;98517.28;;;26.93;38.83
49611;BME280;35515;48.766;9.176;2023-07-08T11:38:57;98517.75;;;26.95;38.42
49611;BME280;35515;48.766;9.176;2023-07-08T11:41:27;98502.09;;;26.99;38.75
49611;BME280;35515;48.766;9.176;2023-07-08T11:43:59;98503.28;;;27.20;38.51
49611;BME280;35515;48.766;9.176;2023-07-08T11:46:31;98509.72;;;27.30;38.15
49611;BME280;35515;48.766;9.176;2023-07-08T11:49:01;98496.50;;;27.35;38.14
49611;BME280;35515;48.766;9.176;2023-07-08T11:51:28;98500.75;;;27.33;38.02
49611;BME280;35515;48.766;9.176;2023-07-08T11:54:01;98487.97;;;27.32;38.09
49611;BME280;35515;48.766;9.176;2023-07-08T11:56:47;98494.97;;;27.43;37.61
49611;BME280;35515;48.766;9.176;2023-07-08T11:59:19;98491.22;;;27.48;37.37
49611;BME280;35515;48.766;9.176;2023-07-08T12:01:48;98487.75;;;27.42;37.88
49611;BME280;35515;48.766;9.176;2023-07-08T12:04:29;98484.19;;;27.50;37.69
49611;BME280;35515;48.766;9.176;2023-07-08T12:07:11;98468.97;;;27.48;38.17
49611;BME280;35515;48.766;9.176;2023-07-08T12:09:45;98469.97;;;27.52;37.79
49611;BME280;35515;48.766;9.176;2023-07-08T12:12:18;98469.50;;;27.59;37.60
49611;BME280;35515;48.766;9.176;2023-07-08T12:14:47;98468.69;;;27.58;37.59
49611;BME280;35515;48.766;9.176;2023-07-08T12:17:14;98467.25;;;27.61;36.91
49611;BME280;35515;48.766;9.176;2023-07-08T12:19:43;98464.63;;;27.64;36.73
49611;BME280;35515;48.766;9.176;2023-07-08T12:22:11;98451.75;;;27.68;36.76
49611;BME280;35515;48.766;9.176;2023-07-08T12:24:39;98462.03;;;27.68;36.50
49611;BME280;35515;48.766;9.176;2023-07-08T12:27:07;98455.53;;;27.81;36.26
49611;BME280;35515;48.766;9.176;2023-07-08T12:29:34;98459.97;;;27.82;36.56
49611;BME280;35515;48.766;9.176;2023-07-08T12:32:02;98458.19;;;27.86;36.53
49611;BME280;35515;48.766;9.176;2023-07-08T12:34:29;98453.38;;;28.01;35.99
49611;BME280;35515;48.766;9.176;2023-07-08T12:36:57;98449.06;;;27.95;35.65
49611;BME280;35515;48.766;9.176;2023-07-08T12:39:24;98451.22;;;27.98;35.81
49611;BME280;35515;48.766;9.176;2023-07-08T12:41:50;98456.63;;;28.03;35.80
49611;BME280;35515;48.766;9.176;2023-07-08T12:44:19;98452.34;;;27.97;35.62
49611;BME280;35515;48.766;9.176;2023-07-08T12:46:47;98447.16;;;28.04;35.42
49611;BME280;35515;48.766;9.176;2023-07-08T12:49:16;98446.69;;;28.11;35.16
49611;BME280;35515;48.766;9.176;2023-07-08T12:51:44;98446.22;;;28.17;35.30
49611;BME280;35515;48.766;9.176;2023-07-08T12:54:12;98453.50;;;28.53;34.56
49611;BME280;35515;48.766;9.176;2023-07-08T12:56:40;98446.09;;;28.40;34.59
49611;BME280;35515;48.766;9.176;2023-07-08T12:59:12;98435.44;;;28.33;34.65
49611;BME280;35515;48.766;9.176;2023-07-08T13:01:41;98438.72;;;28.44;33.90
49611;BME280;35515;48.766;9.176;2023-07-08T13:04:10;98428.53;;;28.31;34.56
49611;BME280;35515;48.766;9.176;2023-07-08T13:06:39;98423.97;;;28.35;34.92
49611;BME280;35515;48.766;9.176;2023-07-08T13:09:23;98426.59;;;28.40;34.77